sensor_id;sensor_type;location;lat;lon;timestamp;P1;durP1;ratioP1;P2;durP2;ratioP2
46931;SDS011;32670;51.464;11.964;2022-10-01T00:01:58;6.70;;;6.10;;
46931;SDS011;32670;51.464;11.964;2022-10-01T00:04:24;6.70;;;6.20;;
46931;SDS011;32670;51.464;11.964;2022-10-01T00:06:50;6.57;;;5.97;;
46931;SDS011;32670;51.464;11.964;2022-10-01T00:09:15;6.50;;;5.90;;
46931;SDS011;32670;51.464;11.964;2022-10-01T00:11:41;5.90;;;5.40;;
46931;SDS011;32670;51.464;11.964;2022-10-01T00:14:07;6.43;;;5.93;;
46931;SDS011;32670;51.464;11.964;2022-10-01T00:16:32;6.40;;;5.90;;
46931;SDS011;32670;51.464;11.964;2022-10-01T00:18:58;6.07;;;5.57;;
46931;SDS011;32670;51.464;11.964;2022-10-01T00:21:28;6.20;;;5.70;;
46931;SDS011;32670;51.464;11.964;2022-10-01T00:23:59;7.43;;;5.70;;
46931;SDS011;32670;51.464;11.964;2022-10-01T00:26:29;6.10;;;5.60;;
46931;SDS011;32670;51.464;11.964;2022-10-01T00:28:57;6.33;;;5.83;;
46931;SDS011;32670;51.464;11.964;2022-10-01T00:31:24;5.90;;;5.40;;
46931;SDS011;32670;51.464;11.964;2022-10-01T00:33:54;6.00;;;5.50;;
46931;SDS011;32670;51.464;11.964;2022-10-01T00:36:22;5.73;;;5.33;;
46931;SDS011;32670;51.464;11.964;2022-10-01T00:38:48;6.10;;;5.60;;
46931;SDS011;32670;51.464;11.964;2022-10-01T00:41:14;5.93;;;5.43;;
46931;SDS011;32670;51.464;11.964;2022-10-01T00:43:44;5.50;;;5.10;;
46931;SDS011;32670;51.464;11.964;2022-10-01T00:46:23;5.53;;;5.07;;
46931;SDS011;32670;51.464;11.964;2022-10-01T00:48:54;5.20;;;4.80;;
46931;SDS011;32670;51.464;11.964;2022-10-01T00:51:30;5.33;;;4.93;;
46931;SDS011;32670;51.464;11.964;2022-10-01T00:54:12;5.87;;;5.37;;
46931;SDS011;32670;51.464;11.964;2022-10-01T00:56:41;5.47;;;5.00;;
46931;SDS011;32670;51.464;11.964;2022-10-01T00:59:08;5.60;;;5.13;;
46931;SDS011;32670;51.464;11.964;2022-10-01T01:01:35;5.00;;;4.60;;
46931;SDS011;32670;51.464;11.964;2022-10-01T01:04:02;5.30;;;4.90;;
46931;SDS011;32670;51.464;11.964;2022-10-01T01:06:28;4.77;;;4.37;;
46931;SDS011;32670;51.464;11.964;2022-10-01T01:08:54;5.30;;;4.90;;
46931;SDS011;32670;51.464;11.964;2022-10-01T01:14:00;4.80;;;4.40;;
46931;SDS011;32670;51.464;11.964;2022-10-01T01:16:37;4.90;;;4.50;;
46931;SDS011;32670;51.464;11.964;2022-10-01T01:19:15;5.03;;;4.57;;
46931;SDS011;32670;51.464;11.964;2022-10-01T01:22:05;5.10;;;4.70;;
46931;SDS011;32670;51.464;11.964;2022-10-01T01:24:39;4.70;;;4.30;;
46931;SDS011;32670;51.464;11.964;2022-10-01T01:27:33;4.23;;;3.93;;
46931;SDS011;32670;51.464;11.964;2022-10-01T01:30:23;4.73;;;4.33;;
46931;SDS011;32670;51.464;11.964;2022-10-01T01:33:05;4.57;;;4.17;;
46931;SDS011;32670;51.464;11.964;2022-10-01T01:35:38;5.20;;;4.73;;
46931;SDS011;32670;51.464;11.964;2022-10-01T01:38:15;4.20;;;3.90;;
46931;SDS011;32670;51.464;11.964;2022-10-01T01:40:45;4.40;;;4.10;;
46931;SDS011;32670;51.464;11.964;2022-10-01T01:43:15;4.33;;;4.03;;
46931;SDS011;32670;51.464;11.964;2022-10-01T01:45:46;4.17;;;3.87;;
46931;SDS011;32670;51.464;11.964;2022-10-01T01:48:15;4.23;;;3.93;;
46931;SDS011;32670;51.464;11.964;2022-10-01T01:50:46;4.30;;;4.00;;
46931;SDS011;32670;51.464;11.964;2022-10-01T01:53:21;4.10;;;3.80;;
46931;SDS011;32670;51.464;11.964;2022-10-01T01:55:47;4.13;;;3.83;;
46931;SDS011;32670;51.464;11.964;2022-10-01T01:58:14;4.10;;;3.80;;
46931;SDS011;32670;51.464;11.964;2022-10-01T02:00:44;3.93;;;3.63;;
46931;SDS011;32670;51.464;11.964;2022-10-01T02:03:12;3.70;;;3.40;;
46931;SDS011;32670;51.464;11.964;2022-10-01T02:05:40;3.70;;;3.40;;
46931;SDS011;32670;51.464;11.964;2022-10-01T02:08:23;4.07;;;3.77;;
46931;SDS011;32670;51.464;11.964;2022-10-01T02:16:36;4.20;;;3.90;;
46931;SDS011;32670;51.464;11.964;2022-10-01T02:24:24;4.00;;;3.60;;
46931;SDS011;32670;51.464;11.964;2022-10-01T02:26:58;3.90;;;3.60;;
46931;SDS011;32670;51.464;11.964;2022-10-01T02:29:27;3.57;;;3.27;;
46931;SDS011;32670;51.464;11.964;2022-10-01T02:31:53;3.60;;;3.30;;
46931;SDS011;32670;51.464;11.964;2022-10-01T02:34:21;3.93;;;3.10;;
46931;SDS011;32670;51.464;11.964;2022-10-01T02:36:51;3.70;;;3.40;;
46931;SDS011;32670;51.464;11.964;2022-10-01T02:39:19;3.60;;;3.30;;
46931;SDS011;32670;51.464;11.964;2022-10-01T02:41:47;3.70;;;3.40;;
46931;SDS011;32670;51.464;11.964;2022-10-01T02:44:20;3.87;;;3.57;;
46931;SDS011;32670;51.464;11.964;2022-10-01T02:46:54;3.30;;;3.10;;
46931;SDS011;32670;51.464;11.964;2022-10-01T02:49:32;3.43;;;3.20;;
46931;SDS011;32670;51.464;11.964;2022-10-01T02:54:36;3.60;;;3.30;;
46931;SDS011;32670;51.464;11.964;2022-10-01T02:57:15;3.33;;;3.13;;
46931;SDS011;32670;51.464;11.964;2022-10-01T02:59:52;3.07;;;2.87;;
46931;SDS011;32670;51.464;11.964;2022-10-01T03:02:24;2.97;;;2.77;;
46931;SDS011;32670;51.464;11.964;2022-10-01T03:04:52;3.27;;;3.07;;
46931;SDS011;32670;51.464;11.964;2022-10-01T03:07:18;2.90;;;2.70;;
46931;SDS011;32670;51.464;11.964;2022-10-01T03:09:44;2.90;;;2.70;;
46931;SDS011;32670;51.464;11.964;2022-10-01T03:12:09;3.50;;;3.20;;
46931;SDS011;32670;51.464;11.964;2022-10-01T03:14:35;3.17;;;2.87;;
46931;SDS011;32670;51.464;11.964;2022-10-01T03:17:03;2.80;;;2.60;;
46931;SDS011;32670;51.464;11.964;2022-10-01T03:19:30;3.07;;;2.87;;
46931;SDS011;32670;51.464;11.964;2022-10-01T03:21:55;3.17;;;2.50;;
46931;SDS011;32670;51.464;11.964;2022-10-01T03:24:21;3.07;;;2.87;;
46931;SDS011;32670;51.464;11.964;2022-10-01T03:26:46;2.80;;;2.60;;
46931;SDS011;32670;51.464;11.964;2022-10-01T03:29:13;2.80;;;2.60;;
46931;SDS011;32670;51.464;11.964;2022-10-01T03:31:39;2.90;;;2.70;;
46931;SDS011;32670;51.464;11.964;2022-10-01T03:34:04;3.10;;;2.90;;
46931;SDS011;32670;51.464;11.964;2022-10-01T03:36:30;2.70;;;2.50;;
46931;SDS011;32670;51.464;11.964;2022-10-01T03:38:56;3.00;;;2.80;;
46931;SDS011;32670;51.464;11.964;2022-10-01T03:41:21;2.73;;;2.50;;
46931;SDS011;32670;51.464;11.964;2022-10-01T03:43:47;2.90;;;2.70;;
46931;SDS011;32670;51.464;11.964;2022-10-01T03:46:12;2.80;;;2.60;;
46931;SDS011;32670;51.464;11.964;2022-10-01T03:48:38;2.40;;;2.30;;
46931;SDS011;32670;51.464;11.964;2022-10-01T03:51:04;2.63;;;2.43;;
46931;SDS011;32670;51.464;11.964;2022-10-01T03:53:30;2.57;;;2.40;;
46931;SDS011;32670;51.464;11.964;2022-10-01T03:55:56;3.80;;;2.50;;
46931;SDS011;32670;51.464;11.964;2022-10-01T03:58:23;2.37;;;2.20;;
46931;SDS011;32670;51.464;11.964;2022-10-01T04:00:49;2.40;;;2.20;;
46931;SDS011;32670;51.464;11.964;2022-10-01T04:03:15;2.80;;;2.60;;
46931;SDS011;32670;51.464;11.964;2022-10-01T04:05:42;2.40;;;2.20;;
46931;SDS011;32670;51.464;11.964;2022-10-01T04:08:08;2.50;;;2.30;;
46931;SDS011;32670;51.464;11.964;2022-10-01T04:10:34;2.37;;;2.20;;
46931;SDS011;32670;51.464;11.964;2022-10-01T04:13:00;2.33;;;2.17;;
46931;SDS011;32670;51.464;11.964;2022-10-01T04:15:25;2.30;;;2.20;;
46931;SDS011;32670;51.464;11.964;2022-10-01T04:17:51;2.10;;;1.90;;
46931;SDS011;32670;51.464;11.964;2022-10-01T04:20:17;2.57;;;2.37;;
46931;SDS011;32670;51.464;11.964;2022-10-01T04:22:42;2.00;;;1.90;;
46931;SDS011;32670;51.464;11.964;2022-10-01T04:25:09;2.50;;;2.30;;
46931;SDS011;32670;51.464;11.964;2022-10-01T04:27:39;2.47;;;2.30;;
46931;SDS011;32670;51.464;11.964;2022-10-01T04:30:06;2.23;;;2.13;;
46931;SDS011;32670;51.464;11.964;2022-10-01T04:32:33;2.10;;;2.00;;
46931;SDS011;32670;51.464;11.964;2022-10-01T04:34:59;2.47;;;2.27;;
46931;SDS011;32670;51.464;11.964;2022-10-01T04:37:27;2.37;;;2.23;;
46931;SDS011;32670;51.464;11.964;2022-10-01T04:39:52;2.50;;;2.30;;
46931;SDS011;32670;51.464;11.964;2022-10-01T04:42:18;2.23;;;2.07;;
46931;SDS011;32670;51.464;11.964;2022-10-01T04:44:44;2.07;;;1.97;;
46931;SDS011;32670;51.464;11.964;2022-10-01T04:47:10;2.10;;;2.00;;
46931;SDS011;32670;51.464;11.964;2022-10-01T04:49:35;2.10;;;2.00;;
46931;SDS011;32670;51.464;11.964;2022-10-01T04:52:01;2.10;;;1.97;;
46931;SDS011;32670;51.464;11.964;2022-10-01T04:54:28;2.00;;;1.90;;
46931;SDS011;32670;51.464;11.964;2022-10-01T04:56:53;2.10;;;2.00;;
46931;SDS011;32670;51.464;11.964;2022-10-01T04:59:19;2.40;;;2.30;;
46931;SDS011;32670;51.464;11.964;2022-10-01T05:01:44;1.80;;;1.70;;
46931;SDS011;32670;51.464;11.964;2022-10-01T05:04:10;2.10;;;1.90;;
46931;SDS011;32670;51.464;11.964;2022-10-01T05:06:36;1.90;;;1.80;;
46931;SDS011;32670;51.464;11.964;2022-10-01T05:09:02;2.00;;;1.90;;
46931;SDS011;32670;51.464;11.964;2022-10-01T05:11:28;1.90;;;1.80;;
46931;SDS011;32670;51.464;11.964;2022-10-01T05:13:54;1.90;;;1.80;;
46931;SDS011;32670;51.464;11.964;2022-10-01T05:16:20;2.80;;;1.80;;
46931;SDS011;32670;51.464;11.964;2022-10-01T05:18:45;2.00;;;1.90;;
46931;SDS011;32670;51.464;11.964;2022-10-01T05:21:11;2.10;;;2.00;;
46931;SDS011;32670;51.464;11.964;2022-10-01T05:23:39;1.90;;;1.80;;
46931;SDS011;32670;51.464;11.964;2022-10-01T05:26:05;1.90;;;1.80;;
46931;SDS011;32670;51.464;11.964;2022-10-01T05:28:31;3.67;;;3.30;;
46931;SDS011;32670;51.464;11.964;2022-10-01T05:30:58;4.30;;;3.90;;
46931;SDS011;32670;51.464;11.964;2022-10-01T05:33:24;5.00;;;4.30;;
46931;SDS011;32670;51.464;11.964;2022-10-01T05:35:50;4.83;;;4.50;;
46931;SDS011;32670;51.464;11.964;2022-10-01T05:38:17;6.10;;;4.30;;
46931;SDS011;32670;51.464;11.964;2022-10-01T05:40:45;3.27;;;2.93;;
46931;SDS011;32670;51.464;11.964;2022-10-01T05:43:11;3.73;;;3.00;;
46931;SDS011;32670;51.464;11.964;2022-10-01T05:45:37;4.23;;;2.50;;
46931;SDS011;32670;51.464;11.964;2022-10-01T05:48:04;2.63;;;2.10;;
46931;SDS011;32670;51.464;11.964;2022-10-01T05:50:31;2.87;;;2.07;;
46931;SDS011;32670;51.464;11.964;2022-10-01T05:52:59;2.30;;;2.00;;
46931;SDS011;32670;51.464;11.964;2022-10-01T05:55:26;2.07;;;1.80;;
46931;SDS011;32670;51.464;11.964;2022-10-01T05:57:56;2.10;;;1.80;;
46931;SDS011;32670;51.464;11.964;2022-10-01T06:00:34;4.30;;;1.90;;
46931;SDS011;32670;51.464;11.964;2022-10-01T06:03:01;1.57;;;1.47;;
46931;SDS011;32670;51.464;11.964;2022-10-01T06:05:28;2.07;;;1.77;;
46931;SDS011;32670;51.464;11.964;2022-10-01T06:07:55;1.90;;;1.60;;
46931;SDS011;32670;51.464;11.964;2022-10-01T06:10:21;2.70;;;1.60;;
46931;SDS011;32670;51.464;11.964;2022-10-01T06:12:47;2.53;;;1.67;;
46931;SDS011;32670;51.464;11.964;2022-10-01T06:15:13;3.07;;;2.30;;
46931;SDS011;32670;51.464;11.964;2022-10-01T06:17:38;3.10;;;2.80;;
46931;SDS011;32670;51.464;11.964;2022-10-01T06:20:09;4.90;;;4.10;;
46931;SDS011;32670;51.464;11.964;2022-10-01T06:22:36;4.70;;;4.30;;
46931;SDS011;32670;51.464;11.964;2022-10-01T06:25:03;5.87;;;4.60;;
46931;SDS011;32670;51.464;11.964;2022-10-01T06:27:29;5.33;;;4.83;;
46931;SDS011;32670;51.464;11.964;2022-10-01T06:29:55;5.63;;;5.03;;
46931;SDS011;32670;51.464;11.964;2022-10-01T06:32:20;6.53;;;5.00;;
46931;SDS011;32670;51.464;11.964;2022-10-01T06:34:46;8.03;;;6.27;;
46931;SDS011;32670;51.464;11.964;2022-10-01T06:37:11;6.53;;;5.93;;
46931;SDS011;32670;51.464;11.964;2022-10-01T06:39:37;5.73;;;5.13;;
46931;SDS011;32670;51.464;11.964;2022-10-01T06:42:02;6.90;;;6.20;;
46931;SDS011;32670;51.464;11.964;2022-10-01T06:44:28;7.73;;;6.40;;
46931;SDS011;32670;51.464;11.964;2022-10-01T06:46:53;8.33;;;7.50;;
46931;SDS011;32670;51.464;11.964;2022-10-01T06:49:18;9.00;;;7.83;;
46931;SDS011;32670;51.464;11.964;2022-10-01T06:51:46;8.93;;;7.40;;
46931;SDS011;32670;51.464;11.964;2022-10-01T06:54:30;8.80;;;7.63;;
46931;SDS011;32670;51.464;11.964;2022-10-01T06:56:55;9.60;;;8.70;;
46931;SDS011;32670;51.464;11.964;2022-10-01T06:59:20;9.50;;;8.60;;
46931;SDS011;32670;51.464;11.964;2022-10-01T07:01:48;9.70;;;8.73;;
46931;SDS011;32670;51.464;11.964;2022-10-01T07:04:14;10.77;;;9.80;;
46931;SDS011;32670;51.464;11.964;2022-10-01T07:06:39;11.20;;;10.10;;
46931;SDS011;32670;51.464;11.964;2022-10-01T07:09:05;11.07;;;10.07;;
46931;SDS011;32670;51.464;11.964;2022-10-01T07:11:30;11.80;;;10.60;;
46931;SDS011;32670;51.464;11.964;2022-10-01T07:13:56;12.30;;;11.17;;
46931;SDS011;32670;51.464;11.964;2022-10-01T07:16:21;12.20;;;11.00;;
46931;SDS011;32670;51.464;11.964;2022-10-01T07:18:47;11.83;;;10.73;;
46931;SDS011;32670;51.464;11.964;2022-10-01T07:21:12;12.53;;;11.30;;
46931;SDS011;32670;51.464;11.964;2022-10-01T07:23:38;12.97;;;11.77;;
46931;SDS011;32670;51.464;11.964;2022-10-01T07:26:04;13.80;;;12.50;;
46931;SDS011;32670;51.464;11.964;2022-10-01T07:28:32;13.77;;;12.43;;
46931;SDS011;32670;51.464;11.964;2022-10-01T07:33:30;14.33;;;12.93;;
46931;SDS011;32670;51.464;11.964;2022-10-01T07:35:58;13.30;;;12.00;;
46931;SDS011;32670;51.464;11.964;2022-10-01T07:38:25;13.43;;;12.17;;
46931;SDS011;32670;51.464;11.964;2022-10-01T07:40:51;12.33;;;11.13;;
46931;SDS011;32670;51.464;11.964;2022-10-01T07:43:18;11.20;;;10.07;;
46931;SDS011;32670;51.464;11.964;2022-10-01T07:45:44;10.47;;;9.47;;
46931;SDS011;32670;51.464;11.964;2022-10-01T07:48:14;12.37;;;11.17;;
46931;SDS011;32670;51.464;11.964;2022-10-01T07:50:41;12.07;;;10.97;;
46931;SDS011;32670;51.464;11.964;2022-10-01T07:53:07;12.37;;;11.07;;
46931;SDS011;32670;51.464;11.964;2022-10-01T07:55:33;12.73;;;11.53;;
46931;SDS011;32670;51.464;11.964;2022-10-01T07:57:58;13.13;;;11.93;;
46931;SDS011;32670;51.464;11.964;2022-10-01T08:00:26;13.47;;;12.17;;
46931;SDS011;32670;51.464;11.964;2022-10-01T08:02:53;12.53;;;11.30;;
46931;SDS011;32670;51.464;11.964;2022-10-01T08:05:21;13.37;;;12.07;;
46931;SDS011;32670;51.464;11.964;2022-10-01T08:07:48;13.50;;;12.13;;
46931;SDS011;32670;51.464;11.964;2022-10-01T08:10:15;13.00;;;11.77;;
46931;SDS011;32670;51.464;11.964;2022-10-01T08:12:42;14.63;;;13.20;;
46931;SDS011;32670;51.464;11.964;2022-10-01T08:15:13;14.90;;;13.50;;
46931;SDS011;32670;51.464;11.964;2022-10-01T08:17:40;15.50;;;13.93;;
46931;SDS011;32670;51.464;11.964;2022-10-01T08:20:07;15.77;;;14.27;;
46931;SDS011;32670;51.464;11.964;2022-10-01T08:22:34;16.63;;;14.97;;
46931;SDS011;32670;51.464;11.964;2022-10-01T08:25:00;18.27;;;16.57;;
46931;SDS011;32670;51.464;11.964;2022-10-01T08:27:26;18.57;;;16.70;;
46931;SDS011;32670;51.464;11.964;2022-10-01T08:29:52;15.80;;;14.40;;
46931;SDS011;32670;51.464;11.964;2022-10-01T08:32:17;17.73;;;14.57;;
46931;SDS011;32670;51.464;11.964;2022-10-01T08:34:43;24.03;;;16.47;;
46931;SDS011;32670;51.464;11.964;2022-10-01T08:37:09;19.20;;;17.13;;
46931;SDS011;32670;51.464;11.964;2022-10-01T08:39:34;19.10;;;17.30;;
46931;SDS011;32670;51.464;11.964;2022-10-01T08:42:12;17.47;;;15.83;;
46931;SDS011;32670;51.464;11.964;2022-10-01T08:44:49;16.37;;;13.93;;
46931;SDS011;32670;51.464;11.964;2022-10-01T08:47:18;16.63;;;15.03;;
46931;SDS011;32670;51.464;11.964;2022-10-01T08:49:55;18.70;;;16.47;;
46931;SDS011;32670;51.464;11.964;2022-10-01T08:52:31;18.80;;;16.90;;
46931;SDS011;32670;51.464;11.964;2022-10-01T08:55:05;21.30;;;17.53;;
46931;SDS011;32670;51.464;11.964;2022-10-01T08:57:42;20.70;;;18.50;;
46931;SDS011;32670;51.464;11.964;2022-10-01T09:00:14;21.23;;;18.97;;
46931;SDS011;32670;51.464;11.964;2022-10-01T09:02:41;23.80;;;18.87;;
46931;SDS011;32670;51.464;11.964;2022-10-01T09:11:10;22.93;;;20.43;;
46931;SDS011;32670;51.464;11.964;2022-10-01T09:19:54;21.73;;;18.43;;
46931;SDS011;32670;51.464;11.964;2022-10-01T09:22:39;19.00;;;17.10;;
46931;SDS011;32670;51.464;11.964;2022-10-01T09:27:59;22.07;;;18.37;;
46931;SDS011;32670;51.464;11.964;2022-10-01T09:30:30;19.47;;;17.47;;
46931;SDS011;32670;51.464;11.964;2022-10-01T09:35:40;19.23;;;17.03;;
46931;SDS011;32670;51.464;11.964;2022-10-01T09:40:51;19.23;;;17.23;;
46931;SDS011;32670;51.464;11.964;2022-10-01T09:43:19;17.97;;;16.30;;
46931;SDS011;32670;51.464;11.964;2022-10-01T09:45:47;18.37;;;16.57;;
46931;SDS011;32670;51.464;11.964;2022-10-01T09:48:28;19.80;;;17.90;;
46931;SDS011;32670;51.464;11.964;2022-10-01T09:51:02;18.90;;;17.10;;
46931;SDS011;32670;51.464;11.964;2022-10-01T09:56:13;10.07;;;9.07;;
46931;SDS011;32670;51.464;11.964;2022-10-01T09:58:46;11.33;;;10.23;;
46931;SDS011;32670;51.464;11.964;2022-10-01T10:01:22;12.23;;;11.00;;
46931;SDS011;32670;51.464;11.964;2022-10-01T10:03:53;13.67;;;12.03;;
46931;SDS011;32670;51.464;11.964;2022-10-01T10:06:25;13.73;;;12.33;;
46931;SDS011;32670;51.464;11.964;2022-10-01T10:08:53;14.83;;;13.23;;
46931;SDS011;32670;51.464;11.964;2022-10-01T10:11:21;15.67;;;14.13;;
46931;SDS011;32670;51.464;11.964;2022-10-01T10:13:50;15.63;;;14.20;;
46931;SDS011;32670;51.464;11.964;2022-10-01T10:16:18;16.17;;;14.67;;
46931;SDS011;32670;51.464;11.964;2022-10-01T10:18:50;16.57;;;15.07;;
46931;SDS011;32670;51.464;11.964;2022-10-01T10:21:26;17.97;;;16.27;;
46931;SDS011;32670;51.464;11.964;2022-10-01T10:23:59;18.73;;;16.93;;
46931;SDS011;32670;51.464;11.964;2022-10-01T10:26:33;18.90;;;17.03;;
46931;SDS011;32670;51.464;11.964;2022-10-01T10:29:02;20.30;;;18.50;;
46931;SDS011;32670;51.464;11.964;2022-10-01T10:34:13;20.00;;;18.10;;
46931;SDS011;32670;51.464;11.964;2022-10-01T10:36:41;22.17;;;19.97;;
46931;SDS011;32670;51.464;11.964;2022-10-01T10:39:22;21.33;;;19.23;;
46931;SDS011;32670;51.464;11.964;2022-10-01T10:41:54;22.43;;;20.00;;
46931;SDS011;32670;51.464;11.964;2022-10-01T10:44:21;21.40;;;19.20;;
46931;SDS011;32670;51.464;11.964;2022-10-01T10:46:49;21.87;;;19.77;;
46931;SDS011;32670;51.464;11.964;2022-10-01T10:49:23;22.90;;;20.60;;
46931;SDS011;32670;51.464;11.964;2022-10-01T10:51:53;24.03;;;21.73;;
46931;SDS011;32670;51.464;11.964;2022-10-01T10:54:27;23.33;;;21.13;;
46931;SDS011;32670;51.464;11.964;2022-10-01T10:56:55;24.40;;;21.87;;
46931;SDS011;32670;51.464;11.964;2022-10-01T10:59:26;24.20;;;21.73;;
46931;SDS011;32670;51.464;11.964;2022-10-01T11:01:52;24.93;;;22.53;;
46931;SDS011;32670;51.464;11.964;2022-10-01T11:04:30;24.93;;;22.60;;
46931;SDS011;32670;51.464;11.964;2022-10-01T11:07:02;25.33;;;22.87;;
46931;SDS011;32670;51.464;11.964;2022-10-01T11:10:14;24.67;;;22.20;;
46931;SDS011;32670;51.464;11.964;2022-10-01T11:15:03;25.80;;;23.17;;
46931;SDS011;32670;51.464;11.964;2022-10-01T11:20:30;26.07;;;23.57;;
46931;SDS011;32670;51.464;11.964;2022-10-01T11:23:02;26.33;;;23.73;;
46931;SDS011;32670;51.464;11.964;2022-10-01T11:28:56;26.43;;;23.83;;
46931;SDS011;32670;51.464;11.964;2022-10-01T11:31:51;27.30;;;24.60;;
46931;SDS011;32670;51.464;11.964;2022-10-01T11:39:50;27.43;;;24.80;;
46931;SDS011;32670;51.464;11.964;2022-10-01T11:42:20;28.53;;;25.73;;
46931;SDS011;32670;51.464;11.964;2022-10-01T11:44:52;28.77;;;25.90;;
46931;SDS011;32670;51.464;11.964;2022-10-01T11:47:28;28.83;;;25.93;;
46931;SDS011;32670;51.464;11.964;2022-10-01T11:50:03;30.13;;;27.13;;
46931;SDS011;32670;51.464;11.964;2022-10-01T11:52:39;28.57;;;25.77;;
46931;SDS011;32670;51.464;11.964;2022-10-01T11:58:10;30.07;;;27.00;;
46931;SDS011;32670;51.464;11.964;2022-10-01T12:00:57;28.57;;;25.87;;
46931;SDS011;32670;51.464;11.964;2022-10-01T12:03:33;29.40;;;26.57;;
46931;SDS011;32670;51.464;11.964;2022-10-01T12:06:06;30.30;;;27.33;;
46931;SDS011;32670;51.464;11.964;2022-10-01T12:08:38;31.47;;;28.37;;
46931;SDS011;32670;51.464;11.964;2022-10-01T12:11:16;31.97;;;28.87;;
46931;SDS011;32670;51.464;11.964;2022-10-01T12:13:56;32.27;;;28.93;;
46931;SDS011;32670;51.464;11.964;2022-10-01T12:17:08;28.63;;;25.80;;
46931;SDS011;32670;51.464;11.964;2022-10-01T12:19:32;29.30;;;26.50;;
46931;SDS011;32670;51.464;11.964;2022-10-01T12:22:04;29.60;;;26.70;;
46931;SDS011;32670;51.464;11.964;2022-10-01T12:24:43;31.07;;;27.97;;
46931;SDS011;32670;51.464;11.964;2022-10-01T12:27:22;29.13;;;26.13;;
46931;SDS011;32670;51.464;11.964;2022-10-01T12:30:09;27.87;;;25.17;;
46931;SDS011;32670;51.464;11.964;2022-10-01T12:35:31;25.30;;;22.67;;
46931;SDS011;32670;51.464;11.964;2022-10-01T12:38:20;25.17;;;22.77;;
46931;SDS011;32670;51.464;11.964;2022-10-01T12:40:58;25.87;;;23.37;;
46931;SDS011;32670;51.464;11.964;2022-10-01T12:44:28;26.80;;;24.03;;
46931;SDS011;32670;51.464;11.964;2022-10-01T12:55:32;30.77;;;27.77;;
46931;SDS011;32670;51.464;11.964;2022-10-01T13:04:11;26.33;;;23.73;;
46931;SDS011;32670;51.464;11.964;2022-10-01T13:15:45;26.57;;;23.77;;
46931;SDS011;32670;51.464;11.964;2022-10-01T13:21:16;27.00;;;24.40;;
46931;SDS011;32670;51.464;11.964;2022-10-01T13:23:55;27.87;;;25.13;;
46931;SDS011;32670;51.464;11.964;2022-10-01T13:26:28;26.50;;;23.80;;
46931;SDS011;32670;51.464;11.964;2022-10-01T13:31:36;27.87;;;25.17;;
46931;SDS011;32670;51.464;11.964;2022-10-01T13:37:18;31.03;;;28.03;;
46931;SDS011;32670;51.464;11.964;2022-10-01T13:39:58;30.30;;;26.50;;
46931;SDS011;32670;51.464;11.964;2022-10-01T13:42:25;31.57;;;28.40;;
46931;SDS011;32670;51.464;11.964;2022-10-01T13:44:53;31.47;;;28.37;;
46931;SDS011;32670;51.464;11.964;2022-10-01T13:47:40;32.93;;;29.73;;
46931;SDS011;32670;51.464;11.964;2022-10-01T13:50:26;32.47;;;29.17;;
46931;SDS011;32670;51.464;11.964;2022-10-01T13:52:51;32.83;;;29.43;;
46931;SDS011;32670;51.464;11.964;2022-10-01T13:55:29;33.40;;;29.97;;
46931;SDS011;32670;51.464;11.964;2022-10-01T13:58:00;33.90;;;30.47;;
46931;SDS011;32670;51.464;11.964;2022-10-01T14:00:27;32.47;;;29.17;;
46931;SDS011;32670;51.464;11.964;2022-10-01T14:02:58;34.00;;;30.57;;
46931;SDS011;32670;51.464;11.964;2022-10-01T14:05:41;33.60;;;30.20;;
46931;SDS011;32670;51.464;11.964;2022-10-01T14:08:11;32.67;;;29.37;;
46931;SDS011;32670;51.464;11.964;2022-10-01T14:14:03;32.83;;;29.73;;
46931;SDS011;32670;51.464;11.964;2022-10-01T14:17:10;31.83;;;28.63;;
46931;SDS011;32670;51.464;11.964;2022-10-01T14:19:43;32.23;;;29.03;;
46931;SDS011;32670;51.464;11.964;2022-10-01T14:22:26;33.73;;;30.43;;
46931;SDS011;32670;51.464;11.964;2022-10-01T14:28:27;33.70;;;30.37;;
46931;SDS011;32670;51.464;11.964;2022-10-01T14:34:09;31.73;;;28.50;;
46931;SDS011;32670;51.464;11.964;2022-10-01T14:36:41;33.53;;;30.20;;
46931;SDS011;32670;51.464;11.964;2022-10-01T14:39:13;33.67;;;30.37;;
46931;SDS011;32670;51.464;11.964;2022-10-01T14:41:39;33.07;;;29.70;;
46931;SDS011;32670;51.464;11.964;2022-10-01T14:44:47;32.53;;;29.23;;
46931;SDS011;32670;51.464;11.964;2022-10-01T14:47:11;32.70;;;29.50;;
46931;SDS011;32670;51.464;11.964;2022-10-01T14:49:43;33.87;;;30.57;;
46931;SDS011;32670;51.464;11.964;2022-10-01T14:52:16;32.20;;;28.90;;
46931;SDS011;32670;51.464;11.964;2022-10-01T14:54:50;32.43;;;29.33;;
46931;SDS011;32670;51.464;11.964;2022-10-01T14:57:29;31.67;;;28.47;;
46931;SDS011;32670;51.464;11.964;2022-10-01T15:00:02;31.33;;;28.27;;
46931;SDS011;32670;51.464;11.964;2022-10-01T15:02:42;33.07;;;29.83;;
46931;SDS011;32670;51.464;11.964;2022-10-01T15:05:32;32.63;;;29.43;;
46931;SDS011;32670;51.464;11.964;2022-10-01T15:08:16;32.67;;;29.57;;
46931;SDS011;32670;51.464;11.964;2022-10-01T15:13:18;29.90;;;27.10;;
46931;SDS011;32670;51.464;11.964;2022-10-01T15:15:50;29.00;;;26.17;;
46931;SDS011;32670;51.464;11.964;2022-10-01T15:18:17;28.27;;;25.47;;
46931;SDS011;32670;51.464;11.964;2022-10-01T15:23:26;27.77;;;25.17;;
46931;SDS011;32670;51.464;11.964;2022-10-01T15:25:53;27.20;;;24.70;;
46931;SDS011;32670;51.464;11.964;2022-10-01T15:28:59;27.97;;;25.23;;
46931;SDS011;32670;51.464;11.964;2022-10-01T15:31:12;28.67;;;25.93;;
46931;SDS011;32670;51.464;11.964;2022-10-01T15:33:39;28.47;;;25.80;;
46931;SDS011;32670;51.464;11.964;2022-10-01T15:36:11;27.80;;;24.93;;
46931;SDS011;32670;51.464;11.964;2022-10-01T15:38:40;29.90;;;27.10;;
46931;SDS011;32670;51.464;11.964;2022-10-01T15:41:09;30.77;;;27.70;;
46931;SDS011;32670;51.464;11.964;2022-10-01T15:43:49;30.10;;;27.30;;
46931;SDS011;32670;51.464;11.964;2022-10-01T15:51:49;29.80;;;27.00;;
46931;SDS011;32670;51.464;11.964;2022-10-01T15:54:40;30.20;;;27.30;;
46931;SDS011;32670;51.464;11.964;2022-10-01T15:57:08;30.33;;;27.50;;
46931;SDS011;32670;51.464;11.964;2022-10-01T15:59:41;30.60;;;27.47;;
46931;SDS011;32670;51.464;11.964;2022-10-01T16:02:07;30.00;;;26.90;;
46931;SDS011;32670;51.464;11.964;2022-10-01T16:04:38;30.20;;;27.27;;
46931;SDS011;32670;51.464;11.964;2022-10-01T16:07:03;30.53;;;27.57;;
46931;SDS011;32670;51.464;11.964;2022-10-01T16:09:29;29.07;;;26.37;;
46931;SDS011;32670;51.464;11.964;2022-10-01T16:11:59;30.53;;;27.57;;
46931;SDS011;32670;51.464;11.964;2022-10-01T16:19:48;29.70;;;26.83;;
46931;SDS011;32670;51.464;11.964;2022-10-01T16:22:24;30.00;;;27.00;;
46931;SDS011;32670;51.464;11.964;2022-10-01T16:24:55;30.23;;;27.37;;
46931;SDS011;32670;51.464;11.964;2022-10-01T16:30:19;28.87;;;26.03;;
46931;SDS011;32670;51.464;11.964;2022-10-01T16:32:58;29.47;;;26.47;;
46931;SDS011;32670;51.464;11.964;2022-10-01T16:35:30;31.27;;;28.23;;
46931;SDS011;32670;51.464;11.964;2022-10-01T16:37:59;30.43;;;27.30;;
46931;SDS011;32670;51.464;11.964;2022-10-01T16:40:27;30.27;;;27.27;;
46931;SDS011;32670;51.464;11.964;2022-10-01T16:42:54;31.03;;;28.23;;
46931;SDS011;32670;51.464;11.964;2022-10-01T16:45:23;30.87;;;27.90;;
46931;SDS011;32670;51.464;11.964;2022-10-01T16:47:51;31.77;;;28.80;;